createdAt,value
2019-02-28T00:00:07.323Z,100169.03
2019-02-28T00:02:39.898Z,100166.06
2019-02-28T00:05:11.389Z,100157.73
2019-02-28T00:07:42.473Z,100160.70
2019-02-28T00:10:15.198Z,100159.03
2019-02-28T00:12:48.043Z,100152.44
2019-02-28T00:15:19.517Z,100144.66
2019-02-28T00:17:50.290Z,100143.80
2019-02-28T00:20:22.552Z,100135.41
2019-02-28T00:22:55.451Z,100140.59
2019-02-28T00:25:27.584Z,100127.64
2019-02-28T00:27:59.010Z,100128.71
2019-02-28T00:30:29.871Z,100127.20
2019-02-28T00:33:01.109Z,100123.64
2019-02-28T00:35:34.478Z,100122.91
2019-02-28T00:38:06.052Z,100119.03
2019-02-28T00:40:38.698Z,100118.00
2019-02-28T00:43:11.572Z,100116.75
2019-02-28T00:45:43.139Z,100115.20
2019-02-28T00:48:18.205Z,100108.80
2019-02-28T00:50:50.159Z,100106.88
2019-02-28T00:53:22.771Z,100101.95
2019-02-28T00:55:55.246Z,100102.05
2019-02-28T00:58:28.869Z,100096.55
2019-02-28T01:00:59.315Z,100094.67
2019-02-28T01:03:32.732Z,100085.00
2019-02-28T01:06:09.764Z,100094.93
2019-02-28T01:08:39.338Z,100086.84
2019-02-28T01:11:13.257Z,100088.67
2019-02-28T01:13:46.098Z,100078.06
2019-02-28T01:16:19.425Z,100081.11
2019-02-28T01:18:59.231Z,100083.00
2019-02-28T01:21:30.356Z,100080.58
2019-02-28T01:24:01.834Z,100080.09
2019-02-28T01:26:34.623Z,100073.20
2019-02-28T01:29:05.766Z,100077.63
2019-02-28T01:31:37.545Z,100073.83
2019-02-28T01:34:10.059Z,100066.72
2019-02-28T01:36:42.818Z,100068.61
2019-02-28T01:39:15.247Z,100068.33
2019-02-28T01:41:47.334Z,100069.76
2019-02-28T01:44:19.860Z,100057.84
2019-02-28T01:46:51.720Z,100056.45
2019-02-28T01:49:25.856Z,100057.09
2019-02-28T01:51:58.311Z,100055.67
2019-02-28T01:54:31.057Z,100052.38
2019-02-28T01:57:03.570Z,100053.96
2019-02-28T01:59:36.400Z,100043.73
2019-02-28T02:02:09.064Z,100042.14
2019-02-28T02:04:40.295Z,100044.31
2019-02-28T02:07:11.185Z,100033.14
2019-02-28T02:09:42.645Z,100035.06
2019-02-28T02:12:15.925Z,100033.15
2019-02-28T02:14:46.975Z,100031.38
2019-02-28T02:17:19.650Z,100027.06
2019-02-28T02:19:52.147Z,100021.86
2019-02-28T02:22:24.902Z,100022.31
2019-02-28T02:24:55.954Z,100019.14
2019-02-28T02:27:28.914Z,100011.83
2019-02-28T02:30:00.449Z,100018.42
2019-02-28T02:32:37.425Z,100016.67
2019-02-28T02:35:08.435Z,100012.06
2019-02-28T02:37:41.274Z,100011.86
2019-02-28T02:40:14.480Z,100007.30
2019-02-28T02:42:48.898Z,99999.05
2019-02-28T02:45:20.972Z,99996.38
2019-02-28T02:47:52.671Z,99996.44
2019-02-28T02:50:23.932Z,99991.92
2019-02-28T02:52:56.371Z,99996.68
2019-02-28T02:55:29.345Z,99987.36
2019-02-28T02:58:01.091Z,99984.34
2019-02-28T03:00:33.577Z,99981.16
2019-02-28T03:03:07.639Z,99983.20
2019-02-28T03:05:39.681Z,99977.70
2019-02-28T03:08:10.574Z,99969.62
2019-02-28T03:10:42.184Z,99970.87
2019-02-28T03:13:14.894Z,99965.27
2019-02-28T03:15:47.048Z,99964.94
2019-02-28T03:18:20.709Z,99965.35
2019-02-28T03:20:52.749Z,99957.91
2019-02-28T03:23:25.259Z,99959.86
2019-02-28T03:26:05.534Z,99959.23
2019-02-28T03:28:32.018Z,99957.39
2019-02-28T03:31:14.104Z,99952.76
2019-02-28T03:33:40.084Z,99952.02
2019-02-28T03:36:15.643Z,99954.94
2019-02-28T03:38:49.818Z,99956.63
2019-02-28T03:41:21.873Z,99951.16
2019-02-28T03:43:54.539Z,99939.63
2019-02-28T03:46:26.971Z,99937.93
2019-02-28T03:48:59.904Z,99940.83
2019-02-28T03:51:33.139Z,99940.77
2019-02-28T03:54:05.630Z,99941.22
2019-02-28T03:56:36.988Z,99938.34
2019-02-28T03:59:08.114Z,99936.56
2019-02-28T04:01:44.817Z,99939.67
2019-02-28T04:04:12.518Z,99944.08
2019-02-28T04:06:43.738Z,99946.19
2019-02-28T04:09:14.818Z,99939.63
2019-02-28T04:11:45.861Z,99940.14
2019-02-28T04:14:16.765Z,99944.33
2019-02-28T04:16:52.522Z,99942.86
2019-02-28T04:19:22.654Z,99943.67
2019-02-28T04:21:52.951Z,99947.02
2019-02-28T04:24:23.807Z,99942.95
2019-02-28T04:26:54.852Z,99953.63
2019-02-28T04:29:29.816Z,99954.77
2019-02-28T04:31:58.304Z,99956.40
2019-02-28T04:34:29.577Z,99952.75
2019-02-28T04:37:00.386Z,99949.45
2019-02-28T04:39:31.486Z,99947.87
2019-02-28T04:42:05.022Z,99945.28
2019-02-28T04:44:35.086Z,99947.28
2019-02-28T04:47:06.775Z,99942.70
2019-02-28T04:49:38.321Z,99941.34
2019-02-28T04:52:11.841Z,99944.94
2019-02-28T04:54:41.816Z,99952.48
2019-02-28T04:57:14.110Z,99957.17
2019-02-28T04:59:45.205Z,99944.33
2019-02-28T05:02:19.756Z,99943.05
2019-02-28T05:04:49.172Z,99944.85
2019-02-28T05:07:20.279Z,99947.18
2019-02-28T05:09:51.311Z,99938.64
2019-02-28T05:12:22.432Z,99939.98
2019-02-28T05:14:55.281Z,99940.63
2019-02-28T05:17:26.099Z,99941.38
2019-02-28T05:19:57.733Z,99943.43
2019-02-28T05:22:29.046Z,99940.42
2019-02-28T05:25:00.235Z,99944.22
2019-02-28T05:27:34.877Z,99952.11
2019-02-28T05:30:04.289Z,99948.42
2019-02-28T05:32:35.593Z,99950.23
2019-02-28T05:35:07.300Z,99939.86
2019-02-28T05:37:38.766Z,99931.87
2019-02-28T05:40:10.985Z,99939.91
2019-02-28T05:42:42.254Z,99943.56
2019-02-28T05:45:15.480Z,99945.05
2019-02-28T05:47:47.475Z,99947.77
2019-02-28T05:50:19.339Z,99951.16
2019-02-28T05:52:50.646Z,99944.53
2019-02-28T05:55:25.688Z,99953.49
2019-02-28T05:57:54.093Z,99958.70
2019-02-28T06:00:25.654Z,99968.95
2019-02-28T06:02:58.024Z,99966.05
2019-02-28T06:05:29.074Z,99974.68
2019-02-28T06:08:00.575Z,99979.89
2019-02-28T06:10:32.707Z,99978.91
2019-02-28T06:13:03.826Z,99984.50
2019-02-28T06:15:37.158Z,99981.16
2019-02-28T06:18:07.359Z,99982.59
2019-02-28T06:20:38.154Z,99980.58
2019-02-28T06:23:09.347Z,99984.58
2019-02-28T06:25:40.927Z,99984.02
2019-02-28T06:28:12.398Z,99986.73
2019-02-28T06:30:43.500Z,99993.09
2019-02-28T06:33:15.834Z,99987.70
2019-02-28T06:35:49.546Z,99989.88
2019-02-28T06:38:19.278Z,99987.36
2019-02-28T06:40:51.178Z,99982.55
2019-02-28T06:43:22.151Z,99985.64
2019-02-28T06:45:53.247Z,99981.69
2019-02-28T06:48:26.569Z,99986.54
2019-02-28T06:50:56.967Z,99992.53
2019-02-28T06:53:30.759Z,99992.33
2019-02-28T06:56:02.477Z,99992.03
2019-02-28T06:58:33.955Z,99993.02
2019-02-28T07:01:05.274Z,99998.58
2019-02-28T07:03:38.924Z,99992.23
2019-02-28T07:06:08.652Z,100001.42
2019-02-28T07:08:41.019Z,100007.53
2019-02-28T07:11:12.043Z,99998.88
2019-02-28T07:13:43.302Z,100005.55
2019-02-28T07:16:14.193Z,100000.70
2019-02-28T07:18:45.081Z,100002.42
2019-02-28T07:21:15.878Z,100012.48
2019-02-28T07:23:46.799Z,100016.74
2019-02-28T07:26:19.521Z,100023.19
2019-02-28T07:28:51.682Z,100024.34
2019-02-28T07:31:24.667Z,100024.19
2019-02-28T07:33:55.776Z,100023.22
2019-02-28T07:36:26.566Z,100017.87
2019-02-28T07:38:57.893Z,100020.96
2019-02-28T07:41:29.906Z,100022.88
2019-02-28T07:44:00.709Z,100026.41
2019-02-28T07:46:31.754Z,100021.00
2019-02-28T07:49:02.558Z,100017.56
2019-02-28T07:51:33.605Z,100018.41
2019-02-28T07:54:05.769Z,100017.69
2019-02-28T07:56:42.483Z,100012.69
2019-02-28T07:59:09.178Z,100012.20
2019-02-28T08:01:40.246Z,100003.39
2019-02-28T08:04:18.108Z,100000.17
2019-02-28T08:06:45.721Z,99996.46
2019-02-28T08:09:26.777Z,99990.62
2019-02-28T08:11:57.589Z,99995.31
2019-02-28T08:14:28.651Z,99995.83
2019-02-28T08:16:59.710Z,100005.19
2019-02-28T08:19:30.538Z,100015.50
2019-02-28T08:22:01.674Z,100011.83
2019-02-28T08:24:35.892Z,100017.64
2019-02-28T08:27:05.152Z,100013.52
2019-02-28T08:29:35.987Z,100011.77
2019-02-28T08:32:08.156Z,100014.55
2019-02-28T08:34:39.243Z,100007.48
2019-02-28T08:37:11.158Z,100006.89
2019-02-28T08:39:42.280Z,100018.66
2019-02-28T08:42:13.396Z,100015.41
2019-02-28T08:44:44.537Z,100012.24
2019-02-28T08:47:17.790Z,100008.23
2019-02-28T08:49:48.034Z,100011.54
2019-02-28T08:52:19.189Z,100009.17
2019-02-28T08:54:50.807Z,100009.69
2019-02-28T08:57:25.723Z,100017.38
2019-02-28T08:59:56.234Z,100015.85
2019-02-28T09:02:27.682Z,100024.23
2019-02-28T09:04:58.575Z,100020.80
2019-02-28T09:07:29.693Z,100011.57
2019-02-28T09:10:00.742Z,100010.75
2019-02-28T09:12:33.199Z,100002.70
2019-02-28T09:15:04.324Z,100009.45
2019-02-28T09:17:37.869Z,100010.86
2019-02-28T09:20:10.516Z,100007.66
2019-02-28T09:22:41.985Z,100017.11
2019-02-28T09:25:14.335Z,100020.33
2019-02-28T09:27:45.253Z,100010.38
2019-02-28T09:30:29.787Z,100005.02
2019-02-28T09:33:00.829Z,100007.39
2019-02-28T09:35:32.218Z,100012.70
2019-02-28T09:38:06.352Z,99988.45
2019-02-28T09:40:36.001Z,100008.02
2019-02-28T09:43:06.946Z,100011.64
2019-02-28T09:45:39.834Z,100018.97
2019-02-28T09:48:10.992Z,100022.16
2019-02-28T09:50:42.102Z,100018.24
2019-02-28T09:53:15.835Z,100008.85
2019-02-28T09:55:45.754Z,100001.42
2019-02-28T09:58:16.750Z,100007.83
2019-02-28T10:00:50.230Z,100004.02
2019-02-28T10:03:20.502Z,100005.50
2019-02-28T10:05:51.424Z,99996.77
2019-02-28T10:08:22.473Z,99997.66
2019-02-28T10:10:55.926Z,100001.52
2019-02-28T10:13:26.252Z,100001.79
2019-02-28T10:15:57.356Z,100000.67
2019-02-28T10:18:28.336Z,99987.35
2019-02-28T10:21:01.843Z,99985.19
2019-02-28T10:23:32.077Z,99992.34
2019-02-28T10:26:03.184Z,99986.28
2019-02-28T10:28:34.020Z,99997.62
2019-02-28T10:31:04.937Z,99993.39
2019-02-28T10:33:35.848Z,99982.28
2019-02-28T10:36:09.324Z,99981.73
2019-02-28T10:38:39.574Z,99956.61
2019-02-28T10:41:11.356Z,99956.61
2019-02-28T10:43:42.345Z,99955.06
2019-02-28T10:46:16.421Z,99966.55
2019-02-28T10:48:50.850Z,99972.64
2019-02-28T10:51:19.941Z,99968.61
2019-02-28T10:53:51.036Z,99964.25
2019-02-28T10:56:22.135Z,99960.17
2019-02-28T10:58:53.843Z,99956.94
2019-02-28T11:02:00.010Z,99956.63
2019-02-28T11:04:42.786Z,99954.25
2019-02-28T11:07:10.433Z,99941.94
2019-02-28T11:09:41.464Z,99944.16
2019-02-28T11:12:19.757Z,99941.05
2019-02-28T11:14:46.463Z,99935.66
2019-02-28T11:17:17.990Z,99930.27
2019-02-28T11:19:51.990Z,99939.33
2019-02-28T11:22:22.234Z,99939.06
2019-02-28T11:24:53.589Z,99936.14
2019-02-28T11:27:24.718Z,99934.47
2019-02-28T11:29:55.886Z,99923.62
2019-02-28T11:32:29.388Z,99920.33
2019-02-28T11:34:59.600Z,99927.16
2019-02-28T11:37:30.775Z,99922.25
2019-02-28T11:40:01.613Z,99916.82
2019-02-28T11:42:33.785Z,99904.31
2019-02-28T11:45:05.078Z,99911.34
2019-02-28T11:47:36.851Z,99905.80
2019-02-28T11:50:08.391Z,99896.23
2019-02-28T11:52:39.486Z,99896.50
2019-02-28T11:55:11.801Z,99891.02
2019-02-28T11:57:43.202Z,99889.63
2019-02-28T12:00:16.947Z,99893.11
2019-02-28T12:02:53.324Z,99888.57
2019-02-28T12:05:20.668Z,99874.75
2019-02-28T12:07:52.149Z,99872.77
2019-02-28T12:10:23.109Z,99864.44
2019-02-28T12:12:56.309Z,99874.71
2019-02-28T12:15:27.802Z,99867.48
2019-02-28T12:18:03.498Z,99863.72
2019-02-28T12:20:31.780Z,99866.84
2019-02-28T12:23:02.891Z,99863.09
2019-02-28T12:25:33.965Z,99855.70
2019-02-28T12:28:06.655Z,99850.11
2019-02-28T12:30:37.874Z,99839.77
2019-02-28T12:33:08.749Z,99831.44
2019-02-28T12:35:40.686Z,99825.83
2019-02-28T12:38:11.853Z,99812.33
2019-02-28T12:40:45.654Z,99810.30
2019-02-28T12:43:15.630Z,99811.56
2019-02-28T12:45:47.457Z,99806.63
2019-02-28T12:48:18.945Z,99803.63
2019-02-28T12:50:50.498Z,99804.57
2019-02-28T12:53:25.240Z,99798.26
2019-02-28T12:55:54.146Z,99800.17
2019-02-28T12:58:25.037Z,99801.28
2019-02-28T13:00:56.473Z,99800.56
2019-02-28T13:03:28.985Z,99784.45
2019-02-28T13:05:59.820Z,99785.72
2019-02-28T13:08:31.497Z,99788.13
2019-02-28T13:11:04.386Z,99782.46
2019-02-28T13:13:34.997Z,99783.07
2019-02-28T13:16:06.179Z,99780.03
2019-02-28T13:18:39.515Z,99775.67
2019-02-28T13:21:10.654Z,99765.70
2019-02-28T13:23:43.062Z,99772.75
2019-02-28T13:26:13.978Z,99766.59
2019-02-28T13:28:45.346Z,99757.55
2019-02-28T13:31:16.432Z,99776.00
2019-02-28T13:33:48.586Z,99764.69
2019-02-28T13:36:21.714Z,99763.08
2019-02-28T13:38:54.833Z,99758.47
2019-02-28T13:41:26.540Z,99754.94
2019-02-28T13:43:59.499Z,99746.14
2019-02-28T13:46:37.375Z,99746.69
2019-02-28T13:49:12.077Z,99749.37
2019-02-28T13:51:42.657Z,99739.38
2019-02-28T13:54:13.608Z,99760.38
2019-02-28T13:56:44.600Z,99747.08
2019-02-28T13:59:15.477Z,99734.47
2019-02-28T14:01:46.680Z,99734.11
2019-02-28T14:04:18.720Z,99739.56
2019-02-28T14:06:52.519Z,99744.53
2019-02-28T14:09:23.077Z,99742.87
2019-02-28T14:11:54.790Z,99747.72
2019-02-28T14:14:25.912Z,99745.74
2019-02-28T14:16:58.301Z,99750.13
2019-02-28T14:19:30.451Z,99744.56
2019-02-28T14:22:01.292Z,99746.92
2019-02-28T14:24:32.161Z,99741.14
2019-02-28T14:27:03.134Z,99740.50
2019-02-28T14:29:34.337Z,99737.16
2019-02-28T14:32:07.532Z,99737.88
2019-02-28T14:34:38.562Z,99744.13
2019-02-28T14:37:09.938Z,99729.34
2019-02-28T14:39:42.726Z,99728.53
2019-02-28T14:42:13.954Z,99724.45
2019-02-28T14:44:45.509Z,99729.72
2019-02-28T14:47:16.388Z,99724.43
2019-02-28T14:49:47.497Z,99729.84
2019-02-28T14:52:18.610Z,99727.51
2019-02-28T14:54:49.402Z,99717.82
2019-02-28T14:57:20.537Z,99709.92
2019-02-28T14:59:52.051Z,99706.56
2019-02-28T15:02:27.865Z,99712.20
2019-02-28T15:04:56.122Z,99717.14
2019-02-28T15:07:27.933Z,99722.50
2019-02-28T15:10:01.776Z,99723.32
2019-02-28T15:12:32.116Z,99737.08
2019-02-28T15:15:03.234Z,99732.30
2019-02-28T15:17:34.426Z,99735.42
2019-02-28T15:20:05.608Z,99732.44
2019-02-28T15:22:36.681Z,99723.09
2019-02-28T15:25:08.497Z,99727.94
2019-02-28T15:27:39.889Z,99727.69
2019-02-28T15:30:13.601Z,99731.31
2019-02-28T15:32:44.493Z,99734.63
2019-02-28T15:35:16.564Z,99736.99
2019-02-28T15:37:48.003Z,99743.57
2019-02-28T15:40:26.936Z,99757.73
2019-02-28T15:42:58.965Z,99766.27
2019-02-28T15:45:30.109Z,99759.02
2019-02-28T15:48:01.223Z,99757.54
2019-02-28T15:50:32.328Z,99764.94
2019-02-28T15:53:03.529Z,99754.72
2019-02-28T15:55:35.494Z,99756.67
2019-02-28T15:58:07.625Z,99752.41
2019-02-28T16:00:39.129Z,99752.03
2019-02-28T16:03:09.933Z,99749.08
2019-02-28T16:05:44.053Z,99757.11
2019-02-28T16:08:13.718Z,99754.27
2019-02-28T16:10:52.834Z,99757.16
2019-02-28T16:13:17.737Z,99762.28
2019-02-28T16:15:50.199Z,99766.79
2019-02-28T16:18:21.467Z,99778.50
2019-02-28T16:20:52.330Z,99780.98
2019-02-28T16:23:27.175Z,99772.64
2019-02-28T16:25:56.773Z,99794.64
2019-02-28T16:28:27.652Z,99802.53
2019-02-28T16:30:58.537Z,99808.11
2019-02-28T16:33:29.334Z,99847.42
2019-02-28T16:36:00.234Z,99825.59
2019-02-28T16:38:32.711Z,99825.59
2019-02-28T16:41:03.927Z,99837.49
2019-02-28T16:43:35.390Z,99852.02
2019-02-28T16:46:06.841Z,99858.88
2019-02-28T16:48:37.666Z,99874.66
2019-02-28T16:51:09.034Z,99880.33
2019-02-28T16:53:40.180Z,99886.42
2019-02-28T16:56:11.078Z,99892.39
2019-02-28T16:58:42.202Z,99888.75
2019-02-28T17:01:13.311Z,99897.75
2019-02-28T17:03:44.687Z,99899.39
2019-02-28T17:06:15.746Z,99906.98
2019-02-28T17:09:08.641Z,99908.15
2019-02-28T17:11:44.674Z,99916.36
2019-02-28T17:14:17.700Z,99921.68
2019-02-28T17:17:02.581Z,99927.89
2019-02-28T17:19:33.647Z,99928.42
2019-02-28T17:22:05.513Z,99937.34
2019-02-28T17:24:36.322Z,99932.16
2019-02-28T17:27:20.950Z,99935.66
2019-02-28T17:30:00.450Z,99933.88
2019-02-28T17:32:32.436Z,99941.45
2019-02-28T17:35:03.403Z,99941.70
2019-02-28T17:37:34.770Z,99937.94
2019-02-28T17:40:06.514Z,99937.83
2019-02-28T17:42:38.619Z,99950.14
2019-02-28T17:45:30.482Z,99950.37
2019-02-28T17:48:48.730Z,99952.00
2019-02-28T17:51:36.554Z,99956.55
2019-02-28T17:54:57.354Z,99952.78
2019-02-28T17:57:57.814Z,99953.83
2019-02-28T18:01:00.890Z,99961.52
2019-02-28T18:04:24.118Z,99960.72
2019-02-28T18:07:23.671Z,99965.20
2019-02-28T18:10:45.867Z,99965.68
2019-02-28T18:13:45.865Z,99948.87
2019-02-28T18:16:30.379Z,99940.68
2019-02-28T18:19:19.065Z,99951.09
2019-02-28T18:22:42.325Z,99947.36
2019-02-28T18:26:12.806Z,99948.58
2019-02-28T18:29:25.052Z,99951.19
2019-02-28T18:31:57.054Z,99944.49
2019-02-28T18:34:30.832Z,99948.27
2019-02-28T18:37:01.718Z,99948.48
2019-02-28T18:39:33.221Z,99944.82
2019-02-28T18:42:04.185Z,99937.64
2019-02-28T18:44:37.478Z,99944.56
2019-02-28T18:47:08.172Z,99940.18
2019-02-28T18:49:39.056Z,99942.90
2019-02-28T18:52:10.247Z,99939.71
2019-02-28T18:54:41.289Z,99938.77
2019-02-28T18:57:12.324Z,99935.80
2019-02-28T18:59:43.377Z,99932.28
2019-02-28T19:02:14.262Z,99933.22
2019-02-28T19:04:45.504Z,99923.63
2019-02-28T19:07:16.532Z,99923.38
2019-02-28T19:09:47.347Z,99919.28
2019-02-28T19:12:18.228Z,99920.58
2019-02-28T19:14:49.391Z,99915.37
2019-02-28T19:17:20.441Z,99915.27
2019-02-28T19:19:52.231Z,99920.11
2019-02-28T19:22:23.443Z,99919.64
2019-02-28T19:24:54.492Z,99926.63
2019-02-28T19:27:25.872Z,99919.72
2019-02-28T19:29:56.755Z,99922.72
2019-02-28T19:32:27.786Z,99914.67
2019-02-28T19:35:00.287Z,99917.76
2019-02-28T19:37:31.625Z,99924.89
2019-02-28T19:40:02.658Z,99919.23
2019-02-28T19:42:35.481Z,99915.91
2019-02-28T19:45:09.049Z,99913.88
2019-02-28T19:47:39.941Z,99912.50
2019-02-28T19:50:11.469Z,99900.77
2019-02-28T19:52:42.922Z,99893.19
2019-02-28T19:55:13.916Z,99904.70
2019-02-28T19:57:44.712Z,99894.86
2019-02-28T20:00:16.480Z,99897.77
2019-02-28T20:02:47.357Z,99887.44
2019-02-28T20:05:18.958Z,99884.37
2019-02-28T20:10:14.666Z,99875.09
2019-02-28T20:12:45.917Z,99880.92
2019-02-28T20:15:18.041Z,99871.25
2019-02-28T20:17:49.166Z,99871.66
2019-02-28T20:20:20.300Z,99879.69
2019-02-28T20:22:51.464Z,99877.84
2019-02-28T20:25:23.921Z,99884.62
2019-02-28T20:27:55.101Z,99876.33
2019-02-28T20:30:26.690Z,99887.95
2019-02-28T20:32:57.633Z,99885.23
2019-02-28T20:35:29.068Z,99883.12
2019-02-28T20:38:00.234Z,99883.45
2019-02-28T20:40:31.153Z,99877.91
2019-02-28T20:43:02.454Z,99887.95
2019-02-28T20:45:33.665Z,99886.06
2019-02-28T20:48:04.680Z,99882.88
2019-02-28T20:50:37.735Z,99882.77
2019-02-28T20:53:10.681Z,99875.05
2019-02-28T20:55:42.145Z,99880.16
2019-02-28T20:58:13.390Z,99879.33
2019-02-28T21:00:44.629Z,99874.61
2019-02-28T21:03:15.671Z,99876.25
2019-02-28T21:05:46.912Z,99876.36
2019-02-28T21:08:18.289Z,99869.48
2019-02-28T21:10:49.431Z,99874.44
2019-02-28T21:13:20.901Z,99867.77
2019-02-28T21:15:51.811Z,99861.91
2019-02-28T21:18:23.147Z,99861.22
2019-02-28T21:20:54.295Z,99861.22
2019-02-28T21:23:25.159Z,99847.97
2019-02-28T21:25:57.357Z,99852.60
2019-02-28T21:28:28.275Z,99850.33
2019-02-28T21:30:59.317Z,99847.36
2019-02-28T21:33:30.353Z,99850.22
2019-02-28T21:36:01.699Z,99845.36
2019-02-28T21:38:33.541Z,99845.86
2019-02-28T21:41:04.561Z,99842.56
2019-02-28T21:43:35.422Z,99832.14
2019-02-28T21:46:06.374Z,99835.94
2019-02-28T21:48:37.393Z,99835.13
2019-02-28T21:51:09.354Z,99839.70
2019-02-28T21:53:40.225Z,99831.70
2019-02-28T21:56:11.115Z,99831.72
2019-02-28T21:58:42.246Z,99829.84
2019-02-28T22:01:13.367Z,99826.63
2019-02-28T22:03:44.468Z,99822.69
2019-02-28T22:06:15.531Z,99823.57
2019-02-28T22:08:46.548Z,99815.87
2019-02-28T22:11:17.901Z,99813.42
2019-02-28T22:13:48.698Z,99804.19
2019-02-28T22:16:19.586Z,99806.22
2019-02-28T22:18:50.391Z,99803.83
2019-02-28T22:21:21.541Z,99797.33
2019-02-28T22:23:52.633Z,99799.21
2019-02-28T22:26:23.568Z,99806.41
2019-02-28T22:28:54.373Z,99808.92
2019-02-28T22:31:45.258Z,99802.78
2019-02-28T22:34:36.599Z,99804.42
2019-02-28T22:37:07.479Z,99801.79
2019-02-28T22:39:38.271Z,99791.38
2019-02-28T22:42:09.161Z,99781.90
2019-02-28T22:44:40.282Z,99791.15
2019-02-28T22:47:11.257Z,99786.88
2019-02-28T22:49:42.549Z,99779.45
2019-02-28T22:52:13.457Z,99782.50
2019-02-28T22:54:44.249Z,99775.99
2019-02-28T22:57:15.304Z,99777.19
2019-02-28T22:59:46.101Z,99767.13
2019-02-28T23:02:17.559Z,99773.99
2019-02-28T23:04:48.908Z,99778.38
2019-02-28T23:07:20.354Z,99776.06
2019-02-28T23:09:51.376Z,99780.34
2019-02-28T23:12:22.533Z,99774.70
2019-02-28T23:14:53.323Z,99780.37
2019-02-28T23:17:24.203Z,99773.11
2019-02-28T23:19:55.294Z,99769.31
2019-02-28T23:22:26.428Z,99767.19
2019-02-28T23:24:57.215Z,99757.72
2019-02-28T23:27:28.245Z,99744.96
2019-02-28T23:30:31.248Z,99744.50
2019-02-28T23:33:05.622Z,99741.90
2019-02-28T23:35:40.766Z,99731.70
2019-02-28T23:38:11.783Z,99733.38
2019-02-28T23:40:42.642Z,99725.11
2019-02-28T23:43:14.068Z,99724.05
2019-02-28T23:45:44.936Z,99727.47
2019-02-28T23:48:16.031Z,99715.19
2019-02-28T23:50:46.841Z,99714.72
2019-02-28T23:53:17.866Z,99716.82
2019-02-28T23:55:48.982Z,99717.45
2019-02-28T23:58:19.849Z,99715.31
